Time;durP1;ratioP1;P1;durP2;ratioP2;P2;SDS_P1;SDS_P2;PMS_P1;PMS_P2;Temp;Humidity;BMP_temperature;BMP_pressure;BME280_temperature;BME280_humidity;BME280_pressure;Samples;Min_cycle;Max_cycle;Signal;HPM_P1;HPM_P2
2021/05/09 00:00:59;;;;;;;8.20;5.20;;;179.20;2252.80;;;;;;5053444;28;20116;-70
2021/05/09 00:03:25;;;;;;;9.68;5.57;;;154.50;2252.80;;;;;;5051675;28;20471;-70
2021/05/09 00:05:51;;;;;;;8.48;5.68;;;154.50;2252.80;;;;;;5051562;28;20096;-71
2021/05/09 00:08:17;;;;;;;12.10;6.10;;;154.40;2252.80;;;;;;5050058;28;20112;-69
2021/05/09 00:10:43;;;;;;;7.47;5.18;;;154.40;2252.80;;;;;;5052456;28;20107;-69
2021/05/09 00:13:10;;;;;;;9.25;5.75;;;154.40;2252.80;;;;;;5051689;28;20079;-68
2021/05/09 00:15:36;;;;;;;9.93;5.93;;;154.30;2252.80;;;;;;5053140;28;20017;-73
2021/05/09 00:18:03;;;;;;;12.63;7.03;;;154.10;2252.80;;;;;;5037962;28;20127;-78
2021/05/09 00:20:28;;;;;;;16.77;8.82;;;153.90;2252.80;;;;;;5034294;28;20075;-77
2021/05/09 00:22:54;;;;;;;16.75;8.90;;;153.70;2252.80;;;;;;5034115;28;20484;-78
2021/05/09 00:25:20;;;;;;;12.07;7.70;;;153.70;2252.80;;;;;;5027384;28;20044;-69
2021/05/09 00:27:45;;;;;;;23.73;15.10;;;128.80;2252.80;;;;;;5033947;28;20479;-68
2021/05/09 00:30:12;;;;;;;16.73;10.82;;;128.50;2252.80;;;;;;5033718;28;20067;-69
2021/05/09 00:32:38;;;;;;;16.02;9.80;;;128.50;2252.80;;;;;;5033731;28;20056;-68
2021/05/09 00:35:04;;;;;;;18.45;9.52;;;128.50;2252.80;;;;;;5033735;28;20045;-73
2021/05/09 00:37:30;;;;;;;12.57;7.28;;;128.50;2252.80;;;;;;5033948;28;20071;-70
2021/05/09 00:39:56;;;;;;;15.18;7.85;;;128.50;2252.80;;;;;;5043492;28;20441;-69
2021/05/09 00:42:22;;;;;;;13.82;7.55;;;128.50;2252.80;;;;;;5053685;28;20028;-68
2021/05/09 00:44:48;;;;;;;12.68;6.72;;;128.60;2252.80;;;;;;5053749;28;20028;-69
2021/05/09 00:47:14;;;;;;;9.95;5.97;;;128.70;2252.80;;;;;;5053440;28;20029;-73
2021/05/09 00:49:41;;;;;;;10.15;6.55;;;128.70;2252.80;;;;;;5053669;28;20028;-73
2021/05/09 00:52:12;;;;;;;13.57;6.65;;;128.70;2252.80;;;;;;5053707;28;20048;-69
2021/05/09 00:54:50;;;;;;;12.15;6.43;;;128.70;2252.80;;;;;;5053322;28;20108;-69
2021/05/09 00:57:16;;;;;;;11.38;6.45;;;128.70;2252.80;;;;;;5053660;28;20024;-71
2021/05/09 00:59:44;;;;;;;9.63;5.95;;;128.70;2252.80;;;;;;5053253;28;20017;-69
2021/05/09 01:02:13;;;;;;;9.80;6.10;;;128.70;2252.80;;;;;;5053257;28;20025;-70
2021/05/09 01:04:40;;;;;;;13.82;6.20;;;128.70;2252.80;;;;;;5052077;28;20021;-70
2021/05/09 01:07:06;;;;;;;10.45;6.40;;;128.70;2252.80;;;;;;5053275;28;20025;-69
2021/05/09 01:09:32;;;;;;;12.32;6.88;;;128.80;2252.80;;;;;;5051759;28;20025;-69
2021/05/09 01:11:57;;;;;;;13.65;7.68;;;128.80;2252.80;;;;;;5053005;28;20094;-69
2021/05/09 01:14:24;;;;;;;11.55;7.78;;;128.70;2252.80;;;;;;5053201;28;20032;-70
2021/05/09 01:16:50;;;;;;;12.23;7.88;;;128.70;2252.80;;;;;;5053028;28;20036;-70
2021/05/09 01:19:15;;;;;;;12.32;7.18;;;128.70;2252.80;;;;;;5053190;28;20021;-69
2021/05/09 01:21:41;;;;;;;14.30;7.68;;;128.70;2252.80;;;;;;5052893;28;20057;-69
2021/05/09 01:24:07;;;;;;;12.38;7.38;;;128.70;2252.80;;;;;;5052780;28;20036;-69
2021/05/09 01:26:33;;;;;;;11.73;7.22;;;128.60;2252.80;;;;;;5051674;28;20040;-69
2021/05/09 01:28:59;;;;;;;13.45;7.72;;;128.60;2252.80;;;;;;5040705;28;20037;-70
2021/05/09 01:31:25;;;;;;;12.75;7.43;;;128.50;2252.80;;;;;;5052771;28;20063;-69
2021/05/09 01:33:50;;;;;;;13.95;7.72;;;128.40;2252.80;;;;;;5052550;28;20479;-70
2021/05/09 01:36:16;;;;;;;11.65;7.72;;;128.30;2252.80;;;;;;5052914;28;20025;-69
2021/05/09 01:38:42;;;;;;;11.65;7.25;;;128.40;2252.80;;;;;;5052621;28;20025;-70
2021/05/09 01:41:08;;;;;;;13.32;7.57;;;128.20;2252.80;;;;;;5052330;28;20052;-69
2021/05/09 01:43:35;;;;;;;11.18;6.82;;;128.10;2252.80;;;;;;5052643;28;20445;-70
2021/05/09 01:46:01;;;;;;;11.73;7.45;;;128.00;2252.80;;;;;;5052626;28;20025;-70
2021/05/09 01:48:27;;;;;;;12.27;7.25;;;103.30;2227.20;;;;;;5052578;28;20094;-69
2021/05/09 01:50:52;;;;;;;12.23;7.40;;;103.20;2227.20;;;;;;5052133;28;20032;-79
2021/05/09 01:53:18;;;;;;;10.32;7.00;;;103.20;2227.20;;;;;;5051264;28;20025;-80
2021/05/09 01:55:44;;;;;;;9.98;6.55;;;103.10;2227.20;;;;;;5052085;28;20017;-80
2021/05/09 01:58:10;;;;;;;12.00;6.80;;;103.10;2227.20;;;;;;5050739;28;20017;-79
2021/05/09 02:00:35;;;;;;;11.45;6.20;;;103.10;2227.20;;;;;;5050711;28;20083;-79
2021/05/09 02:03:01;;;;;;;10.60;6.28;;;103.20;2227.20;;;;;;5052232;28;20021;-69
2021/05/09 02:05:27;;;;;;;9.35;6.15;;;103.20;2227.20;;;;;;5052388;28;20037;-70
2021/05/09 02:07:53;;;;;;;13.32;7.18;;;103.20;2227.20;;;;;;5052216;28;20021;-70
2021/05/09 02:10:18;;;;;;;10.38;6.45;;;103.30;2227.20;;;;;;5052211;28;20029;-70
2021/05/09 02:12:44;;;;;;;10.77;6.60;;;103.30;2227.20;;;;;;5052258;28;20108;-70
2021/05/09 02:15:10;;;;;;;19.27;11.68;;;103.30;2227.20;;;;;;5046164;28;20013;-70
2021/05/09 02:17:36;;;;;;;20.58;12.23;;;103.30;2227.20;;;;;;5044593;28;20028;-69
2021/05/09 02:20:05;;;;;;;54.70;26.65;;;128.00;2252.80;;;;;;5052099;28;20422;-71
2021/05/09 02:22:31;;;;;;;46.38;22.08;;;103.10;2227.20;;;;;;5052341;28;20364;-71
2021/05/09 02:24:57;;;;;;;33.33;18.83;;;103.10;2227.20;;;;;;5051827;28;20232;-70
2021/05/09 02:27:22;;;;;;;40.20;21.95;;;103.00;2227.20;;;;;;5044011;28;20067;-70
2021/05/09 02:29:48;;;;;;;30.60;16.60;;;103.10;2227.20;;;;;;5046139;28;20086;-70
2021/05/09 02:32:14;;;;;;;33.92;17.17;;;103.00;2227.20;;;;;;5052035;28;20017;-77
2021/05/09 02:34:39;;;;;;;26.92;13.80;;;103.10;2227.20;;;;;;5051802;28;20017;-72
2021/05/09 02:37:05;;;;;;;24.55;12.00;;;103.10;2227.20;;;;;;5051691;28;20021;-79
2021/05/09 02:39:31;;;;;;;25.67;10.80;;;103.10;2227.20;;;;;;5050493;28;20040;-80
2021/05/09 02:41:57;;;;;;;18.90;9.48;;;103.10;2227.20;;;;;;5051506;28;20570;-80
2021/05/09 02:44:23;;;;;;;15.75;8.88;;;103.10;2227.20;;;;;;5051689;28;20021;-79
2021/05/09 02:46:49;;;;;;;10.50;6.43;;;103.00;2227.20;;;;;;5051712;28;20025;-78
2021/05/09 02:49:15;;;;;;;11.48;6.30;;;103.00;2227.20;;;;;;5051621;28;20052;-78
2021/05/09 02:51:40;;;;;;;9.05;5.63;;;103.00;2227.20;;;;;;5051566;28;20028;-69
2021/05/09 02:54:06;;;;;;;9.88;5.90;;;102.90;2227.20;;;;;;5051924;28;20085;-70
2021/05/09 02:56:32;;;;;;;10.15;6.00;;;102.90;2227.20;;;;;;5051810;28;20497;-71
2021/05/09 02:58:58;;;;;;;8.55;5.28;;;102.90;2227.20;;;;;;5045416;28;20021;-70
2021/05/09 03:01:23;;;;;;;8.80;5.15;;;102.80;2227.20;;;;;;5029956;28;20411;-73
2021/05/09 03:03:49;;;;;;;9.23;5.55;;;102.70;2227.20;;;;;;5031466;28;20037;-81
2021/05/09 03:06:15;;;;;;;9.07;5.50;;;102.60;2227.20;;;;;;5031769;28;20029;-80
2021/05/09 03:08:41;;;;;;;8.07;5.25;;;102.60;2227.20;;;;;;5031512;28;20361;-78
2021/05/09 03:11:07;;;;;;;9.00;5.20;;;102.50;2227.20;;;;;;5031229;28;20033;-77
2021/05/09 03:13:33;;;;;;;8.48;5.38;;;102.50;2227.20;;;;;;5033450;28;20392;-81
2021/05/09 03:15:59;;;;;;;12.35;6.97;;;102.50;2227.20;;;;;;5034075;28;20037;-69
2021/05/09 03:18:26;;;;;;;13.77;6.65;;;102.50;2227.20;;;;;;5021430;28;20022;-69
2021/05/09 03:20:52;;;;;;;14.43;6.82;;;102.40;2227.20;;;;;;5035346;28;20041;-77
2021/05/09 03:23:19;;;;;;;11.65;7.25;;;102.50;2227.20;;;;;;5035520;28;20039;-70
2021/05/09 03:25:46;;;;;;;10.27;6.82;;;102.50;2227.20;;;;;;5035490;28;20025;-69
2021/05/09 03:28:11;;;;;;;10.95;6.28;;;102.50;2227.20;;;;;;5035141;28;20026;-69
2021/05/09 03:30:38;;;;;;;10.38;6.05;;;102.50;2227.20;;;;;;5035320;28;20112;-78
2021/05/09 03:33:04;;;;;;;10.30;6.70;;;102.60;2227.20;;;;;;5033747;28;20391;-80
2021/05/09 03:35:29;;;;;;;9.13;5.80;;;102.60;2227.20;;;;;;5035089;28;20025;-79
2021/05/09 03:37:55;;;;;;;9.43;6.15;;;102.70;2227.20;;;;;;5034853;28;20027;-73
2021/05/09 03:40:21;;;;;;;10.32;6.63;;;102.70;2227.20;;;;;;5034850;28;20126;-73
2021/05/09 03:42:47;;;;;;;10.93;6.15;;;102.80;2227.20;;;;;;5034983;28;20033;-69
2021/05/09 03:45:13;;;;;;;8.98;5.80;;;102.90;2227.20;;;;;;5035069;28;20021;-69
2021/05/09 03:47:39;;;;;;;10.48;6.07;;;102.90;2227.20;;;;;;5034853;28;20040;-78
2021/05/09 03:50:05;;;;;;;9.15;6.20;;;103.00;2227.20;;;;;;5033632;28;20487;-78
2021/05/09 03:52:31;;;;;;;8.82;5.57;;;103.10;2227.20;;;;;;5034828;28;20079;-81
2021/05/09 03:54:57;;;;;;;10.50;6.22;;;103.10;2227.20;;;;;;5033217;28;20025;-80
2021/05/09 03:57:23;;;;;;;10.98;6.32;;;103.20;2227.20;;;;;;5034881;28;20025;-79
2021/05/09 03:59:49;;;;;;;7.88;5.40;;;103.30;2227.20;;;;;;5034694;28;20108;-80
2021/05/09 04:02:15;;;;;;;21.27;12.35;;;128.00;2252.80;;;;;;5034595;28;20466;-80
2021/05/09 04:04:40;;;;;;;34.47;15.43;;;128.10;2252.80;;;;;;5034537;28;20112;-79
2021/05/09 04:07:06;;;;;;;12.50;7.70;;;128.20;2252.80;;;;;;5034415;28;20035;-78
2021/05/09 04:09:32;;;;;;;9.02;5.82;;;128.10;2252.80;;;;;;5033145;28;20033;-79
2021/05/09 04:11:58;;;;;;;8.00;5.22;;;128.10;2252.80;;;;;;5034272;28;20109;-72
2021/05/09 04:14:23;;;;;;;21.02;12.55;;;128.20;2252.80;;;;;;5034664;28;20025;-73
2021/05/09 04:16:49;;;;;;;15.07;8.93;;;128.30;2252.80;;;;;;5034185;28;20033;-69
2021/05/09 04:19:15;;;;;;;13.75;8.30;;;128.30;2252.80;;;;;;5034279;28;20049;-69
2021/05/09 04:21:41;;;;;;;13.32;6.90;;;128.40;2252.80;;;;;;5034433;28;20021;-77
2021/05/09 04:24:08;;;;;;;11.93;7.43;;;128.40;2252.80;;;;;;5034107;28;20091;-77
2021/05/09 04:26:34;;;;;;;10.27;6.85;;;128.60;2252.80;;;;;;5033979;28;20022;-78
2021/05/09 04:28:59;;;;;;;10.20;6.30;;;128.80;2252.80;;;;;;5034264;28;20021;-81
2021/05/09 04:31:25;;;;;;;8.88;6.00;;;128.90;2252.80;;;;;;5032781;28;20080;-79
2021/05/09 04:33:51;;;;;;;7.93;5.45;;;153.70;2252.80;;;;;;5033927;28;20048;-73
2021/05/09 04:36:17;;;;;;;9.60;5.70;;;153.90;2252.80;;;;;;5033924;28;20095;-68
2021/05/09 04:38:42;;;;;;;7.93;5.30;;;154.10;2252.80;;;;;;5033946;28;20495;-69
2021/05/09 04:41:08;;;;;;;9.48;5.80;;;154.30;2252.80;;;;;;5033845;28;20068;-69
2021/05/09 04:43:35;;;;;;;8.32;5.50;;;154.30;2252.80;;;;;;5033617;28;20029;-71
2021/05/09 04:46:01;;;;;;;8.57;5.25;;;154.30;2252.80;;;;;;5033825;28;20025;-70
2021/05/09 04:48:27;;;;;;;7.97;5.10;;;154.50;2252.80;;;;;;5033603;28;20025;-69
2021/05/09 04:50:53;;;;;;;9.48;5.20;;;154.40;2252.80;;;;;;5033626;28;20113;-70
2021/05/09 04:53:28;;;;;;;10.65;4.85;;;179.20;2252.80;;;;;;5033880;28;20117;-70
2021/05/09 04:55:57;;;;;;;9.23;5.43;;;179.40;2252.80;;;;;;5033843;28;20048;-70
2021/05/09 04:58:22;;;;;;;8.75;5.55;;;179.50;2252.80;;;;;;5019536;28;20053;-79
2021/05/09 05:00:58;;;;;;;8.40;5.18;;;179.40;2252.80;;;;;;5033544;28;20147;-79
2021/05/09 05:03:23;;;;;;;10.45;5.43;;;179.60;2252.80;;;;;;5032138;28;20022;-77
2021/05/09 05:05:49;;;;;;;6.63;4.80;;;179.70;2252.80;;;;;;5033301;28;20032;-80
2021/05/09 05:08:15;;;;;;;7.10;4.65;;;179.90;2252.80;;;;;;5033114;28;20483;-70
2021/05/09 05:10:40;;;;;;;7.18;4.93;;;205.10;2252.80;;;;;;5033149;28;20067;-69
2021/05/09 05:13:38;;;;;;;11.02;5.97;;;205.30;2252.80;;;;;;5033357;28;20022;-69
2021/05/09 05:16:06;;;;;;;6.50;4.57;;;230.70;2252.80;;;;;;5042689;28;20036;-78
2021/05/09 05:18:32;;;;;;;6.45;4.65;;;231.10;2252.80;;;;;;5033176;28;20017;-69
2021/05/09 05:21:04;;;;;;;6.30;4.60;;;256.10;2252.80;;;;;;5033249;28;20387;-69
2021/05/09 05:23:30;;;;;;;9.43;4.90;;;281.70;2278.40;;;;;;5033356;28;20029;-68
2021/05/09 05:25:56;;;;;;;6.43;4.57;;;282.20;2278.40;;;;;;5032885;28;20060;-67
2021/05/09 05:28:22;;;;;;;8.40;5.50;;;307.40;2304.00;;;;;;5033244;28;20021;-76
2021/05/09 05:30:49;;;;;;;10.38;6.22;;;308.10;2201.60;;;;;;5032432;28;20083;-78
2021/05/09 05:33:30;;;;;;;12.27;7.18;;;333.30;2150.40;;;;;;5031483;28;20029;-79
2021/05/09 05:35:57;;;;;;;10.52;7.10;;;333.60;2099.20;;;;;;5032257;28;20083;-82
2021/05/09 05:38:23;;;;;;;8.07;5.40;;;359.10;1971.20;;;;;;5032696;28;20450;-77
2021/05/09 05:40:54;;;;;;;9.77;6.63;;;384.00;1894.40;;;;;;5032368;28;20048;-71
2021/05/09 05:43:25;;;;;;;10.45;5.78;;;384.70;1843.20;;;;;;5032717;28;20022;-71
2021/05/09 05:45:52;;;;;;;8.40;6.40;;;410.00;1766.40;;;;;;5032743;28;20539;-79
2021/05/09 05:48:19;;;;;;;8.30;5.88;;;410.10;1740.80;;;;;;5031079;28;20483;-71
2021/05/09 05:50:45;;;;;;;8.00;6.32;;;409.70;1740.80;;;;;;5032399;28;20571;-70
2021/05/09 05:53:11;;;;;;;8.73;6.82;;;410.00;1740.80;;;;;;5032228;28;20104;-70
2021/05/09 05:55:36;;;;;;;10.52;7.80;;;410.20;1740.80;;;;;;5032245;28;20472;-77
2021/05/09 05:58:02;;;;;;;13.93;9.48;;;410.40;1715.20;;;;;;5032459;28;20040;-76
2021/05/09 06:00:28;;;;;;;10.82;7.70;;;435.70;1664.00;;;;;;5032213;28;20048;-69
2021/05/09 06:02:53;;;;;;;10.77;7.35;;;435.50;1638.40;;;;;;5032587;28;20017;-76
2021/05/09 06:05:19;;;;;;;10.93;7.32;;;436.00;1587.20;;;;;;5032111;28;20586;-80
2021/05/09 06:07:45;;;;;;;11.98;6.70;;;460.90;1536.00;;;;;;5031937;28;20022;-81
2021/05/09 06:10:11;;;;;;;9.80;6.60;;;436.10;1561.60;;;;;;5032294;28;20021;-78
2021/05/09 06:12:37;;;;;;;10.85;7.13;;;435.50;1561.60;;;;;;5030740;28;20037;-82
2021/05/09 06:15:03;;;;;;;11.07;7.05;;;435.90;1536.00;;;;;;5032365;28;20384;-80
2021/05/09 06:17:29;;;;;;;9.52;6.97;;;436.10;1536.00;;;;;;5032045;28;20047;-70
2021/05/09 06:19:55;;;;;;;12.52;7.85;;;460.90;1510.40;;;;;;5032102;28;20480;-70
2021/05/09 06:22:20;;;;;;;10.73;6.63;;;461.30;1484.80;;;;;;5032068;28;20022;-68
2021/05/09 06:24:46;;;;;;;8.95;6.15;;;436.00;1510.40;;;;;;5032051;28;20113;-70
2021/05/09 06:27:12;;;;;;;10.35;6.70;;;435.90;1510.40;;;;;;5031938;28;20468;-68
2021/05/09 06:29:38;;;;;;;8.27;5.53;;;461.00;1510.40;;;;;;5031801;28;20026;-68
2021/05/09 06:32:04;;;;;;;8.00;5.22;;;460.90;1510.40;;;;;;5031951;28;20034;-79
2021/05/09 06:34:29;;;;;;;8.77;6.15;;;460.90;1510.40;;;;;;5031836;28;20561;-78
2021/05/09 06:36:55;;;;;;;15.63;7.22;;;461.70;1484.80;;;;;;5031935;28;20026;-77
2021/05/09 06:39:27;;;;;;;12.80;6.88;;;461.70;1459.20;;;;;;5031906;28;20021;-70
2021/05/09 06:41:56;;;;;;;10.13;6.00;;;487.00;1433.60;;;;;;5031480;28;20522;-68
2021/05/09 06:44:22;;;;;;;8.15;5.68;;;486.80;1408.00;;;;;;5032097;28;20087;-69
2021/05/09 06:46:47;;;;;;;10.55;6.35;;;487.10;1382.40;;;;;;5032639;28;20410;-70
2021/05/09 06:49:14;;;;;;;8.38;6.13;;;512.40;1356.80;;;;;;5036120;28;20033;-71
2021/05/09 06:51:40;;;;;;;10.02;6.53;;;537.70;1382.40;;;;;;5035432;28;20061;-80
2021/05/09 06:54:06;;;;;;;9.32;6.53;;;538.20;1331.20;;;;;;5035963;28;20070;-83
2021/05/09 06:56:32;;;;;;;9.48;6.30;;;537.90;1331.20;;;;;;5034555;28;20060;-75
2021/05/09 06:58:57;;;;;;;11.45;7.60;;;563.30;1305.60;;;;;;5035937;28;20041;-75
2021/05/09 07:01:23;;;;;;;12.55;8.30;;;538.50;1254.40;;;;;;5036005;28;20074;-75
2021/05/09 07:03:50;;;;;;;14.98;8.27;;;538.50;1280.00;;;;;;5035828;28;20029;-75
2021/05/09 07:06:16;;;;;;;13.38;7.55;;;537.90;1280.00;;;;;;5035255;28;20038;-74
2021/05/09 07:08:42;;;;;;;17.27;10.07;;;512.00;1305.60;;;;;;5035751;28;20044;-80
2021/05/09 07:11:07;;;;;;;12.40;8.05;;;512.50;1305.60;;;;;;5035403;28;20040;-71
2021/05/09 07:13:33;;;;;;;16.70;8.18;;;512.50;1305.60;;;;;;5035430;28;20387;-83
2021/05/09 07:15:59;;;;;;;13.80;8.60;;;537.80;1305.60;;;;;;5034085;28;20021;-83
2021/05/09 07:18:26;;;;;;;11.43;6.60;;;563.20;1305.60;;;;;;5035408;28;20020;-82
2021/05/09 07:20:56;;;;;;;9.93;6.38;;;538.50;1228.80;;;;;;5033825;28;20064;-81
2021/05/09 07:23:22;;;;;;;10.38;5.80;;;538.00;1280.00;;;;;;5035332;28;20083;-81
2021/05/09 07:25:49;;;;;;;8.05;5.55;;;537.70;1280.00;;;;;;5035549;28;20055;-82
2021/05/09 07:28:16;;;;;;;8.18;5.57;;;512.30;1280.00;;;;;;5034938;28;20092;-82
2021/05/09 07:30:43;;;;;;;8.00;4.75;;;512.50;1280.00;;;;;;5033869;28;20080;-81
2021/05/09 07:33:12;;;;;;;10.48;5.00;;;512.10;1305.60;;;;;;5033860;28;20017;-81
2021/05/09 07:35:38;;;;;;;7.45;4.70;;;486.70;1331.20;;;;;;5035400;28;20013;-81
2021/05/09 07:38:04;;;;;;;8.68;4.32;;;487.00;1331.20;;;;;;5034663;28;20049;-78
2021/05/09 07:40:31;;;;;;;9.45;5.60;;;486.50;1356.80;;;;;;5034890;28;20083;-81
2021/05/09 07:42:56;;;;;;;10.23;5.82;;;486.70;1356.80;;;;;;5034747;28;20026;-81
2021/05/09 07:45:23;;;;;;;8.52;4.18;;;461.30;1356.80;;;;;;5034756;28;20424;-75
2021/05/09 07:47:50;;;;;;;6.95;4.10;;;461.70;1382.40;;;;;;5034747;28;20025;-80
2021/05/09 07:50:17;;;;;;;8.35;4.28;;;461.70;1356.80;;;;;;5033722;28;20022;-80
2021/05/09 07:52:47;;;;;;;7.97;4.20;;;461.10;1356.80;;;;;;5034661;28;20021;-78
2021/05/09 07:55:14;;;;;;;8.90;4.07;;;460.80;1408.00;;;;;;5034014;28;20369;-81
2021/05/09 07:57:40;;;;;;;8.02;4.30;;;460.80;1408.00;;;;;;5034094;28;20022;-80
2021/05/09 08:00:09;;;;;;;6.57;3.88;;;460.90;1408.00;;;;;;5033705;28;20083;-79
2021/05/09 08:02:35;;;;;;;6.82;3.90;;;435.80;1408.00;;;;;;5034074;28;20522;-80
2021/05/09 08:05:00;;;;;;;7.78;3.78;;;460.80;1433.60;;;;;;5042503;28;20067;-74
2021/05/09 08:07:26;;;;;;;7.82;3.63;;;461.10;1408.00;;;;;;5037149;28;20036;-77
2021/05/09 08:09:52;;;;;;;5.88;3.60;;;461.10;1382.40;;;;;;5033926;28;20171;-78
2021/05/09 08:12:18;;;;;;;6.50;3.60;;;460.80;1382.40;;;;;;5033832;28;20440;-80
2021/05/09 08:14:43;;;;;;;5.40;3.40;;;435.90;1382.40;;;;;;5033620;28;20144;-81
2021/05/09 08:17:10;;;;;;;6.53;3.83;;;436.00;1408.00;;;;;;5040259;28;20123;-69
2021/05/09 08:19:36;;;;;;;6.63;3.55;;;435.70;1433.60;;;;;;5033645;28;20025;-77
2021/05/09 08:22:02;;;;;;;6.25;3.33;;;436.00;1382.40;;;;;;5040346;28;20044;-71
2021/05/09 08:24:33;;;;;;;5.90;3.28;;;435.90;1382.40;;;;;;5038481;28;20029;-70
2021/05/09 08:26:59;;;;;;;5.43;3.40;;;436.10;1408.00;;;;;;5039775;28;20048;-68
2021/05/09 08:29:25;;;;;;;7.03;3.38;;;436.10;1408.00;;;;;;5033316;28;20021;-71
2021/05/09 08:31:51;;;;;;;6.38;3.38;;;460.80;1408.00;;;;;;5033368;28;20037;-78
2021/05/09 08:34:17;;;;;;;6.40;3.30;;;460.90;1433.60;;;;;;5032311;28;20017;-78
2021/05/09 08:36:43;;;;;;;5.32;2.92;;;436.10;1382.40;;;;;;5033187;28;20096;-79
2021/05/09 08:39:08;;;;;;;6.30;3.33;;;460.90;1408.00;;;;;;5032417;28;20076;-77
2021/05/09 08:41:42;;;;;;;5.07;3.40;;;460.90;1408.00;;;;;;5033597;28;20087;-77
2021/05/09 08:44:09;;;;;;;6.50;2.97;;;460.80;1382.40;;;;;;5033478;28;20091;-80
2021/05/09 08:46:36;;;;;;;5.65;3.13;;;460.90;1382.40;;;;;;5033655;28;20129;-80
2021/05/09 08:49:03;;;;;;;4.10;2.53;;;461.00;1356.80;;;;;;5032897;28;20036;-78
2021/05/09 08:51:30;;;;;;;5.13;2.60;;;460.90;1356.80;;;;;;5033375;28;20047;-78
2021/05/09 08:53:56;;;;;;;4.90;2.80;;;461.20;1356.80;;;;;;5033441;28;20030;-80
2021/05/09 08:56:22;;;;;;;6.65;2.90;;;461.40;1331.20;;;;;;5033498;28;20097;-80
2021/05/09 08:58:48;;;;;;;5.07;2.50;;;461.40;1331.20;;;;;;5033248;28;20067;-79
2021/05/09 09:01:14;;;;;;;4.50;2.80;;;461.50;1305.60;;;;;;5033293;28;20026;-81
2021/05/09 09:03:40;;;;;;;5.30;2.50;;;461.60;1331.20;;;;;;5033115;28;20038;-78
2021/05/09 09:06:10;;;;;;;3.83;2.47;;;461.60;1305.60;;;;;;5033325;28;20017;-74
2021/05/09 09:08:52;;;;;;;4.13;2.60;;;461.50;1305.60;;;;;;5033213;28;20029;-79
2021/05/09 09:11:28;;;;;;;6.40;2.90;;;486.50;1305.60;;;;;;5031952;28;20037;-70
2021/05/09 09:14:09;;;;;;;4.55;2.50;;;486.80;1305.60;;;;;;5033172;28;20539;-80
2021/05/09 09:16:36;;;;;;;4.00;2.50;;;486.90;1280.00;;;;;;5032034;28;20398;-81
2021/05/09 09:19:12;;;;;;;4.05;2.55;;;486.70;1280.00;;;;;;5033442;28;20025;-77
2021/05/09 09:21:38;;;;;;;5.70;3.10;;;487.00;1305.60;;;;;;5033042;28;20029;-77
2021/05/09 09:24:11;;;;;;;4.53;2.30;;;487.00;1228.80;;;;;;5032985;28;20033;-73
2021/05/09 09:26:39;;;;;;;7.90;6.00;;;486.60;1254.40;;;;;;5032848;28;20080;-70
2021/05/09 09:29:27;;;;;;;6.55;4.00;;;486.90;1254.40;;;;;;5032699;28;20026;-73
2021/05/09 09:31:52;;;;;;;3.92;2.47;;;487.10;1203.20;;;;;;5023772;28;20029;-72
2021/05/09 09:34:18;;;;;;;4.63;2.20;;;487.30;1203.20;;;;;;5033707;28;20016;-73
2021/05/09 09:36:45;;;;;;;5.45;2.55;;;487.20;1177.60;;;;;;5035211;28;20353;-67
2021/05/09 09:39:11;;;;;;;9.02;5.13;;;512.00;1203.20;;;;;;5032586;28;20104;-72
2021/05/09 09:41:47;;;;;;;4.50;2.58;;;512.40;1203.20;;;;;;5032378;28;20128;-71
2021/05/09 09:44:17;;;;;;;4.00;2.20;;;512.40;1177.60;;;;;;5032320;28;20104;-72
2021/05/09 09:46:53;;;;;;;6.60;3.75;;;512.60;1203.20;;;;;;5032548;28;20079;-72
2021/05/09 09:49:23;;;;;;;3.85;2.80;;;512.60;1177.60;;;;;;5032513;28;20037;-78
2021/05/09 09:51:51;;;;;;;17.88;8.10;;;512.40;1152.00;;;;;;5032214;28;20472;-69
2021/05/09 09:54:41;;;;;;;5.95;3.38;;;512.70;1177.60;;;;;;5032132;28;20120;-68
2021/05/09 09:57:08;;;;;;;;;;;512.70;1152.00;;;;;;5032186;28;20075;-69
2021/05/09 09:59:34;;;;;;;4.65;2.65;;;512.60;1177.60;;;;;;5032621;28;19905;-67
2021/05/09 10:02:03;;;;;;;3.97;2.40;;;512.70;1177.60;;;;;;5032311;28;20507;-68
2021/05/09 10:04:29;;;;;;;5.10;2.58;;;537.60;1254.40;;;;;;5032672;28;20044;-69
2021/05/09 10:06:55;;;;;;;5.57;2.30;;;512.70;1203.20;;;;;;5032711;28;20375;-70
2021/05/09 10:09:20;;;;;;;4.65;2.85;;;512.80;1228.80;;;;;;5032270;28;20096;-73
2021/05/09 10:11:47;;;;;;;5.32;3.10;;;537.70;1228.80;;;;;;5032176;28;20501;-72
2021/05/09 10:14:13;;;;;;;4.40;2.35;;;538.00;1203.20;;;;;;5048989;28;20021;-74
2021/05/09 10:16:46;;;;;;;4.30;2.50;;;538.20;1177.60;;;;;;5044749;28;20025;-75
2021/05/09 10:19:16;;;;;;;4.00;2.20;;;538.50;1177.60;;;;;;5037482;28;20495;-75
2021/05/09 10:21:42;;;;;;;4.28;2.10;;;538.50;1152.00;;;;;;5031869;28;20056;-70
2021/05/09 10:24:14;;;;;;;3.10;2.10;;;563.20;1203.20;;;;;;5032287;28;20036;-70
2021/05/09 10:27:04;;;;;;;3.70;2.10;;;563.30;1203.20;;;;;;5025904;28;20025;-70
2021/05/09 10:29:36;;;;;;;3.65;2.03;;;538.50;1126.40;;;;;;5027847;28;20033;-74
2021/05/09 10:32:22;;;;;;;3.55;1.90;;;563.20;1126.40;;;;;;5031267;28;20037;-81
2021/05/09 10:34:57;;;;;;;3.35;2.10;;;563.40;1126.40;;;;;;5027973;28;20041;-79
2021/05/09 10:40:19;;;;;;;;;;;563.40;1075.20;;;;;;5033585;28;20053;-76
2021/05/09 10:42:47;;;;;;;3.83;1.80;;;563.30;1126.40;;;;;;5039013;28;19920;-73
2021/05/09 10:45:28;;;;;;;4.65;2.80;;;538.40;1049.60;;;;;;5047606;28;20048;-73
2021/05/09 10:48:13;;;;;;;2.97;1.65;;;538.50;1049.60;;;;;;5049856;28;20023;-69
2021/05/09 10:50:39;;;;;;;3.45;2.20;;;538.50;1075.20;;;;;;5048847;28;20091;-74
2021/05/09 10:53:05;;;;;;;6.38;1.95;;;563.30;1100.80;;;;;;5046627;28;20032;-70
2021/05/09 10:55:49;;;;;;;3.10;1.70;;;563.30;1075.20;;;;;;5031840;28;20017;-79
2021/05/09 10:58:17;;;;;;;4.90;2.83;;;538.50;1049.60;;;;;;5031476;28;20018;-80
2021/05/09 11:00:58;;;;;;;4.72;2.40;;;563.20;1100.80;;;;;;5030244;28;20053;-80
2021/05/09 11:03:48;;;;;;;3.05;1.80;;;563.20;1075.20;;;;;;5031588;28;20022;-74
2021/05/09 11:06:24;;;;;;;3.08;1.73;;;538.40;1049.60;;;;;;5033170;28;20041;-69
2021/05/09 11:09:01;;;;;;;4.13;1.80;;;538.40;1049.60;;;;;;5036763;28;20071;-69
2021/05/09 11:11:32;;;;;;;4.28;2.22;;;563.30;1126.40;;;;;;5046934;28;20021;-71
2021/05/09 11:16:40;;;;;;;4.65;2.47;;;563.60;1075.20;;;;;;5031091;28;20100;-73
2021/05/09 11:19:14;;;;;;;5.00;2.38;;;563.40;1100.80;;;;;;5031033;28;20129;-71
2021/05/09 11:21:46;;;;;;;4.70;2.60;;;563.30;1075.20;;;;;;5031219;28;20117;-78
2021/05/09 11:24:23;;;;;;;3.67;1.90;;;563.30;1075.20;;;;;;5030927;28;20101;-81
2021/05/09 11:26:50;;;;;;;3.67;2.20;;;563.30;1075.20;;;;;;5028230;28;20025;-77
2021/05/09 11:29:19;;;;;;;4.28;2.00;;;563.40;1075.20;;;;;;5033389;28;20025;-79
2021/05/09 11:31:50;;;;;;;3.78;2.03;;;563.30;1075.20;;;;;;5030464;28;20487;-79
2021/05/09 11:34:18;;;;;;;5.25;2.22;;;563.30;1075.20;;;;;;5035384;28;20025;-78
2021/05/09 11:36:48;;;;;;;6.78;3.60;;;563.50;1100.80;;;;;;5035987;28;20018;-76
2021/05/09 11:39:18;;;;;;;5.22;2.22;;;563.70;1100.80;;;;;;5035293;28;20075;-79
2021/05/09 11:42:04;;;;;;;8.07;3.30;;;563.60;1075.20;;;;;;5033022;28;20053;-72
2021/05/09 11:44:33;;;;;;;6.47;2.30;;;563.70;1075.20;;;;;;5034468;28;20079;-79
2021/05/09 11:46:59;;;;;;;3.97;1.90;;;563.80;1075.20;;;;;;5036315;28;20083;-77
2021/05/09 11:49:29;;;;;;;3.22;1.90;;;563.70;1049.60;;;;;;5044445;28;20021;-71
2021/05/09 11:52:00;;;;;;;3.53;2.35;;;563.60;1075.20;;;;;;5051335;28;20035;-71
2021/05/09 11:54:29;;;;;;;5.85;3.13;;;563.50;1100.80;;;;;;5043651;28;20487;-77
2021/05/09 11:57:00;;;;;;;4.95;2.28;;;563.50;1075.20;;;;;;5035142;28;20013;-73
2021/05/09 11:59:30;;;;;;;3.72;2.00;;;563.40;1075.20;;;;;;5034442;28;20029;-69
2021/05/09 12:01:57;;;;;;;4.28;2.35;;;563.50;1100.80;;;;;;5047849;28;20029;-75
2021/05/09 12:04:28;;;;;;;4.47;2.40;;;563.40;1075.20;;;;;;5052585;28;20025;-70
2021/05/09 12:06:54;;;;;;;3.95;2.20;;;563.50;1100.80;;;;;;5046274;28;20052;-64
2021/05/09 12:09:20;;;;;;;3.90;2.10;;;563.40;1126.40;;;;;;5049311;28;20025;-72
2021/05/09 12:11:46;;;;;;;4.38;2.20;;;563.40;1126.40;;;;;;5051050;28;20029;-65
2021/05/09 12:14:12;;;;;;;3.80;1.80;;;563.60;1126.40;;;;;;5052570;28;20021;-74
2021/05/09 12:16:47;;;;;;;5.28;3.00;;;563.60;1100.80;;;;;;5047720;28;20104;-71
2021/05/09 12:19:14;;;;;;;3.28;1.90;;;563.70;1075.20;;;;;;5040778;28;20488;-69
2021/05/09 12:21:57;;;;;;;3.55;2.20;;;563.80;1100.80;;;;;;5033420;28;20044;-76